sensor_id;sensor_type;location;lat;lon;timestamp;P1;durP1;ratioP1;P2;durP2;ratioP2
6259;SDS011;3163;51.516;4.000;2023-12-14T00:00:47;1.43;;;1.20;;
6259;SDS011;3163;51.516;4.000;2023-12-14T00:03:13;8.33;;;4.13;;
6259;SDS011;3163;51.516;4.000;2023-12-14T00:05:39;2.30;;;2.03;;
6259;SDS011;3163;51.516;4.000;2023-12-14T00:08:05;7.57;;;2.57;;
6259;SDS011;3163;51.516;4.000;2023-12-14T00:10:31;2.57;;;1.73;;
6259;SDS011;3163;51.516;4.000;2023-12-14T00:12:57;8.80;;;4.63;;
6259;SDS011;3163;51.516;4.000;2023-12-14T00:15:23;11.50;;;5.83;;
6259;SDS011;3163;51.516;4.000;2023-12-14T00:17:49;4.90;;;3.93;;
6259;SDS011;3163;51.516;4.000;2023-12-14T00:20:15;3.43;;;3.13;;
6259;SDS011;3163;51.516;4.000;2023-12-14T00:22:41;4.77;;;2.60;;
6259;SDS011;3163;51.516;4.000;2023-12-14T00:25:07;4.40;;;3.30;;
6259;SDS011;3163;51.516;4.000;2023-12-14T00:27:33;1.40;;;1.30;;
6259;SDS011;3163;51.516;4.000;2023-12-14T00:29:59;5.27;;;3.97;;
6259;SDS011;3163;51.516;4.000;2023-12-14T00:32:25;9.10;;;4.93;;
6259;SDS011;3163;51.516;4.000;2023-12-14T00:34:51;3.30;;;2.70;;
6259;SDS011;3163;51.516;4.000;2023-12-14T00:37:17;4.83;;;3.20;;
6259;SDS011;3163;51.516;4.000;2023-12-14T00:39:43;5.47;;;3.53;;
6259;SDS011;3163;51.516;4.000;2023-12-14T00:42:09;5.47;;;2.13;;
6259;SDS011;3163;51.516;4.000;2023-12-14T00:44:35;5.47;;;4.00;;
6259;SDS011;3163;51.516;4.000;2023-12-14T00:47:01;1.63;;;1.53;;
6259;SDS011;3163;51.516;4.000;2023-12-14T00:49:27;8.33;;;3.67;;
6259;SDS011;3163;51.516;4.000;2023-12-14T00:51:53;1.10;;;1.00;;
6259;SDS011;3163;51.516;4.000;2023-12-14T00:54:19;4.50;;;3.17;;
6259;SDS011;3163;51.516;4.000;2023-12-14T00:56:45;2.37;;;1.90;;
6259;SDS011;3163;51.516;4.000;2023-12-14T00:59:11;2.17;;;1.93;;
6259;SDS011;3163;51.516;4.000;2023-12-14T01:01:37;2.67;;;2.47;;
6259;SDS011;3163;51.516;4.000;2023-12-14T01:04:03;2.97;;;2.57;;
6259;SDS011;3163;51.516;4.000;2023-12-14T01:06:29;2.20;;;2.10;;
6259;SDS011;3163;51.516;4.000;2023-12-14T01:08:55;4.47;;;2.83;;
6259;SDS011;3163;51.516;4.000;2023-12-14T01:11:21;3.13;;;2.53;;
6259;SDS011;3163;51.516;4.000;2023-12-14T01:13:47;1.70;;;1.60;;
6259;SDS011;3163;51.516;4.000;2023-12-14T01:16:13;2.90;;;1.57;;
6259;SDS011;3163;51.516;4.000;2023-12-14T01:18:39;1.90;;;1.80;;
6259;SDS011;3163;51.516;4.000;2023-12-14T01:21:05;3.27;;;2.80;;
6259;SDS011;3163;51.516;4.000;2023-12-14T01:23:31;1.70;;;1.33;;
6259;SDS011;3163;51.516;4.000;2023-12-14T01:25:57;2.73;;;2.53;;
6259;SDS011;3163;51.516;4.000;2023-12-14T01:28:23;2.10;;;1.77;;
6259;SDS011;3163;51.516;4.000;2023-12-14T01:30:49;2.03;;;1.83;;
6259;SDS011;3163;51.516;4.000;2023-12-14T01:33:15;4.10;;;2.47;;
6259;SDS011;3163;51.516;4.000;2023-12-14T01:35:41;11.63;;;2.80;;
6259;SDS011;3163;51.516;4.000;2023-12-14T01:38:07;2.43;;;1.30;;
6259;SDS011;3163;51.516;4.000;2023-12-14T01:40:33;3.27;;;1.97;;
6259;SDS011;3163;51.516;4.000;2023-12-14T01:43:06;2.63;;;2.30;;
6259;SDS011;3163;51.516;4.000;2023-12-14T01:45:32;0.87;;;0.80;;
6259;SDS011;3163;51.516;4.000;2023-12-14T01:47:58;1.80;;;1.53;;
6259;SDS011;3163;51.516;4.000;2023-12-14T01:50:24;5.87;;;3.43;;
6259;SDS011;3163;51.516;4.000;2023-12-14T01:52:50;2.47;;;2.27;;
6259;SDS011;3163;51.516;4.000;2023-12-14T01:55:16;1.53;;;1.00;;
6259;SDS011;3163;51.516;4.000;2023-12-14T01:57:43;3.60;;;2.23;;
6259;SDS011;3163;51.516;4.000;2023-12-14T02:00:12;4.87;;;3.13;;
6259;SDS011;3163;51.516;4.000;2023-12-14T02:02:41;3.87;;;2.37;;
6259;SDS011;3163;51.516;4.000;2023-12-14T02:05:07;4.87;;;1.83;;
6259;SDS011;3163;51.516;4.000;2023-12-14T02:07:33;1.17;;;1.07;;
6259;SDS011;3163;51.516;4.000;2023-12-14T02:09:59;3.43;;;2.90;;
6259;SDS011;3163;51.516;4.000;2023-12-14T02:12:25;2.50;;;1.97;;
6259;SDS011;3163;51.516;4.000;2023-12-14T02:14:51;2.57;;;2.10;;
6259;SDS011;3163;51.516;4.000;2023-12-14T02:17:17;2.50;;;1.73;;
6259;SDS011;3163;51.516;4.000;2023-12-14T02:19:43;3.97;;;2.47;;
6259;SDS011;3163;51.516;4.000;2023-12-14T02:22:09;1.03;;;1.00;;
6259;SDS011;3163;51.516;4.000;2023-12-14T02:24:35;1.83;;;1.47;;
6259;SDS011;3163;51.516;4.000;2023-12-14T02:27:02;1.90;;;1.80;;
6259;SDS011;3163;51.516;4.000;2023-12-14T02:29:28;3.53;;;2.27;;
6259;SDS011;3163;51.516;4.000;2023-12-14T02:31:54;1.90;;;1.80;;
6259;SDS011;3163;51.516;4.000;2023-12-14T02:34:20;4.90;;;2.40;;
6259;SDS011;3163;51.516;4.000;2023-12-14T02:36:46;1.57;;;1.47;;
6259;SDS011;3163;51.516;4.000;2023-12-14T02:39:12;3.00;;;2.70;;
6259;SDS011;3163;51.516;4.000;2023-12-14T02:41:38;1.60;;;1.50;;
6259;SDS011;3163;51.516;4.000;2023-12-14T02:44:04;4.03;;;2.57;;
6259;SDS011;3163;51.516;4.000;2023-12-14T02:46:30;1.60;;;1.50;;
6259;SDS011;3163;51.516;4.000;2023-12-14T02:48:56;2.90;;;2.67;;
6259;SDS011;3163;51.516;4.000;2023-12-14T02:51:22;1.60;;;1.47;;
6259;SDS011;3163;51.516;4.000;2023-12-14T02:53:48;4.77;;;3.43;;
6259;SDS011;3163;51.516;4.000;2023-12-14T02:56:14;3.83;;;1.97;;
6259;SDS011;3163;51.516;4.000;2023-12-14T02:58:40;2.43;;;1.47;;
6259;SDS011;3163;51.516;4.000;2023-12-14T03:01:06;4.37;;;2.23;;
6259;SDS011;3163;51.516;4.000;2023-12-14T03:03:32;4.68;;;4.03;;
6259;SDS011;3163;51.516;4.000;2023-12-14T03:05:58;3.47;;;3.17;;
6259;SDS011;3163;51.516;4.000;2023-12-14T03:08:24;2.73;;;2.50;;
6259;SDS011;3163;51.516;4.000;2023-12-14T03:10:50;3.57;;;3.27;;
6259;SDS011;3163;51.516;4.000;2023-12-14T03:13:16;3.70;;;2.33;;
6259;SDS011;3163;51.516;4.000;2023-12-14T03:15:42;1.73;;;1.60;;
6259;SDS011;3163;51.516;4.000;2023-12-14T03:18:08;2.80;;;2.53;;
6259;SDS011;3163;51.516;4.000;2023-12-14T03:20:34;3.63;;;2.80;;
6259;SDS011;3163;51.516;4.000;2023-12-14T03:23:00;3.47;;;2.90;;
6259;SDS011;3163;51.516;4.000;2023-12-14T03:25:26;5.50;;;3.33;;
6259;SDS011;3163;51.516;4.000;2023-12-14T03:27:52;3.10;;;2.57;;
6259;SDS011;3163;51.516;4.000;2023-12-14T03:30:18;3.03;;;2.17;;
6259;SDS011;3163;51.516;4.000;2023-12-14T03:32:44;5.53;;;2.87;;
6259;SDS011;3163;51.516;4.000;2023-12-14T03:35:10;2.30;;;2.10;;
6259;SDS011;3163;51.516;4.000;2023-12-14T03:37:36;4.00;;;2.10;;
6259;SDS011;3163;51.516;4.000;2023-12-14T03:40:02;3.77;;;2.83;;
6259;SDS011;3163;51.516;4.000;2023-12-14T03:42:28;2.03;;;1.87;;
6259;SDS011;3163;51.516;4.000;2023-12-14T03:44:54;2.30;;;2.13;;
6259;SDS011;3163;51.516;4.000;2023-12-14T03:47:20;3.33;;;2.10;;
6259;SDS011;3163;51.516;4.000;2023-12-14T03:49:46;3.57;;;2.30;;
6259;SDS011;3163;51.516;4.000;2023-12-14T03:52:14;3.57;;;3.10;;
6259;SDS011;3163;51.516;4.000;2023-12-14T03:54:40;3.77;;;3.10;;
6259;SDS011;3163;51.516;4.000;2023-12-14T03:57:06;3.93;;;2.80;;
6259;SDS011;3163;51.516;4.000;2023-12-14T03:59:32;2.13;;;1.93;;
6259;SDS011;3163;51.516;4.000;2023-12-14T04:01:58;3.43;;;2.40;;
6259;SDS011;3163;51.516;4.000;2023-12-14T04:04:24;2.40;;;1.77;;
6259;SDS011;3163;51.516;4.000;2023-12-14T04:06:50;4.53;;;2.97;;
6259;SDS011;3163;51.516;4.000;2023-12-14T04:09:16;5.40;;;2.50;;
6259;SDS011;3163;51.516;4.000;2023-12-14T04:11:42;4.30;;;2.93;;
6259;SDS011;3163;51.516;4.000;2023-12-14T04:14:08;2.83;;;2.57;;
6259;SDS011;3163;51.516;4.000;2023-12-14T04:16:34;2.63;;;2.37;;
6259;SDS011;3163;51.516;4.000;2023-12-14T04:19:00;2.83;;;2.53;;
6259;SDS011;3163;51.516;4.000;2023-12-14T04:21:26;1.03;;;1.03;;
6259;SDS011;3163;51.516;4.000;2023-12-14T04:23:52;3.57;;;3.23;;
6259;SDS011;3163;51.516;4.000;2023-12-14T04:26:18;3.27;;;1.83;;
6259;SDS011;3163;51.516;4.000;2023-12-14T04:28:44;2.37;;;2.07;;
6259;SDS011;3163;51.516;4.000;2023-12-14T04:31:11;1.67;;;1.50;;
6259;SDS011;3163;51.516;4.000;2023-12-14T04:33:37;4.70;;;1.83;;
6259;SDS011;3163;51.516;4.000;2023-12-14T04:36:03;1.77;;;1.67;;
6259;SDS011;3163;51.516;4.000;2023-12-14T04:38:29;2.20;;;1.83;;
6259;SDS011;3163;51.516;4.000;2023-12-14T04:40:55;2.03;;;1.90;;
6259;SDS011;3163;51.516;4.000;2023-12-14T04:43:21;0.60;;;0.60;;
6259;SDS011;3163;51.516;4.000;2023-12-14T04:45:47;0.87;;;0.87;;
6259;SDS011;3163;51.516;4.000;2023-12-14T04:48:13;0.70;;;0.70;;
6259;SDS011;3163;51.516;4.000;2023-12-14T04:50:39;5.47;;;1.67;;
6259;SDS011;3163;51.516;4.000;2023-12-14T04:53:05;2.20;;;1.80;;
6259;SDS011;3163;51.516;4.000;2023-12-14T04:55:31;1.37;;;1.27;;
6259;SDS011;3163;51.516;4.000;2023-12-14T04:57:57;4.53;;;2.03;;
6259;SDS011;3163;51.516;4.000;2023-12-14T05:00:23;1.93;;;1.53;;
6259;SDS011;3163;51.516;4.000;2023-12-14T05:02:49;3.50;;;1.90;;
6259;SDS011;3163;51.516;4.000;2023-12-14T05:05:15;1.10;;;1.07;;
6259;SDS011;3163;51.516;4.000;2023-12-14T05:07:41;6.07;;;1.87;;
6259;SDS011;3163;51.516;4.000;2023-12-14T05:10:07;4.60;;;1.93;;
6259;SDS011;3163;51.516;4.000;2023-12-14T05:12:34;1.53;;;1.43;;
6259;SDS011;3163;51.516;4.000;2023-12-14T05:15:00;2.73;;;1.60;;
6259;SDS011;3163;51.516;4.000;2023-12-14T05:17:26;0.47;;;0.47;;
6259;SDS011;3163;51.516;4.000;2023-12-14T05:19:52;2.17;;;1.75;;
6259;SDS011;3163;51.516;4.000;2023-12-14T05:22:18;2.77;;;1.23;;
6259;SDS011;3163;51.516;4.000;2023-12-14T05:24:46;1.17;;;0.90;;
6259;SDS011;3163;51.516;4.000;2023-12-14T05:27:12;3.67;;;1.60;;
6259;SDS011;3163;51.516;4.000;2023-12-14T05:29:39;1.60;;;1.33;;
6259;SDS011;3163;51.516;4.000;2023-12-14T05:32:05;3.07;;;0.80;;
6259;SDS011;3163;51.516;4.000;2023-12-14T05:34:31;6.20;;;1.67;;
6259;SDS011;3163;51.516;4.000;2023-12-14T05:36:57;1.53;;;1.40;;
6259;SDS011;3163;51.516;4.000;2023-12-14T05:39:23;1.87;;;1.67;;
6259;SDS011;3163;51.516;4.000;2023-12-14T05:41:49;1.90;;;1.67;;
6259;SDS011;3163;51.516;4.000;2023-12-14T05:44:15;1.60;;;1.50;;
6259;SDS011;3163;51.516;4.000;2023-12-14T05:46:41;1.67;;;1.57;;
6259;SDS011;3163;51.516;4.000;2023-12-14T05:49:07;2.97;;;1.80;;
6259;SDS011;3163;51.516;4.000;2023-12-14T05:51:33;2.87;;;1.50;;
6259;SDS011;3163;51.516;4.000;2023-12-14T05:54:00;3.57;;;1.50;;
6259;SDS011;3163;51.516;4.000;2023-12-14T05:56:26;1.60;;;1.50;;
6259;SDS011;3163;51.516;4.000;2023-12-14T05:58:52;2.37;;;1.43;;
6259;SDS011;3163;51.516;4.000;2023-12-14T06:01:18;4.70;;;1.77;;
6259;SDS011;3163;51.516;4.000;2023-12-14T06:03:44;3.03;;;1.73;;
6259;SDS011;3163;51.516;4.000;2023-12-14T06:06:11;3.13;;;1.80;;
6259;SDS011;3163;51.516;4.000;2023-12-14T06:08:38;1.80;;;1.67;;
6259;SDS011;3163;51.516;4.000;2023-12-14T06:11:04;1.60;;;1.50;;
6259;SDS011;3163;51.516;4.000;2023-12-14T06:13:31;1.67;;;1.57;;
6259;SDS011;3163;51.516;4.000;2023-12-14T06:15:57;2.03;;;1.63;;
6259;SDS011;3163;51.516;4.000;2023-12-14T06:18:23;2.03;;;1.77;;
6259;SDS011;3163;51.516;4.000;2023-12-14T06:20:49;4.13;;;1.60;;
6259;SDS011;3163;51.516;4.000;2023-12-14T06:23:15;3.00;;;1.50;;
6259;SDS011;3163;51.516;4.000;2023-12-14T06:25:41;2.97;;;1.77;;
6259;SDS011;3163;51.516;4.000;2023-12-14T06:28:07;4.20;;;1.50;;
6259;SDS011;3163;51.516;4.000;2023-12-14T06:30:33;2.70;;;1.83;;
6259;SDS011;3163;51.516;4.000;2023-12-14T06:32:59;2.03;;;1.70;;
6259;SDS011;3163;51.516;4.000;2023-12-14T06:35:25;2.27;;;1.50;;
6259;SDS011;3163;51.516;4.000;2023-12-14T06:37:51;3.03;;;1.90;;
6259;SDS011;3163;51.516;4.000;2023-12-14T06:40:17;1.07;;;1.00;;
6259;SDS011;3163;51.516;4.000;2023-12-14T06:42:44;2.00;;;1.43;;
6259;SDS011;3163;51.516;4.000;2023-12-14T06:45:10;1.53;;;1.43;;
6259;SDS011;3163;51.516;4.000;2023-12-14T06:47:36;2.00;;;1.43;;
6259;SDS011;3163;51.516;4.000;2023-12-14T06:50:03;1.57;;;1.43;;
6259;SDS011;3163;51.516;4.000;2023-12-14T06:52:29;2.13;;;1.57;;
6259;SDS011;3163;51.516;4.000;2023-12-14T06:54:55;1.73;;;1.30;;
6259;SDS011;3163;51.516;4.000;2023-12-14T06:57:21;2.43;;;1.37;;
6259;SDS011;3163;51.516;4.000;2023-12-14T06:59:47;3.60;;;1.70;;
6259;SDS011;3163;51.516;4.000;2023-12-14T07:02:13;7.90;;;2.07;;
6259;SDS011;3163;51.516;4.000;2023-12-14T07:04:39;1.70;;;1.60;;
6259;SDS011;3163;51.516;4.000;2023-12-14T07:07:05;2.73;;;1.33;;
6259;SDS011;3163;51.516;4.000;2023-12-14T07:09:31;3.20;;;1.93;;
6259;SDS011;3163;51.516;4.000;2023-12-14T07:11:57;3.50;;;1.37;;
6259;SDS011;3163;51.516;4.000;2023-12-14T07:14:26;1.70;;;1.60;;
6259;SDS011;3163;51.516;4.000;2023-12-14T07:16:52;3.67;;;1.87;;
6259;SDS011;3163;51.516;4.000;2023-12-14T07:19:18;1.70;;;1.50;;
6259;SDS011;3163;51.516;4.000;2023-12-14T07:21:44;2.10;;;1.57;;
6259;SDS011;3163;51.516;4.000;2023-12-14T07:24:10;2.37;;;1.43;;
6259;SDS011;3163;51.516;4.000;2023-12-14T07:26:36;1.93;;;1.23;;
6259;SDS011;3163;51.516;4.000;2023-12-14T07:29:02;1.43;;;1.30;;
6259;SDS011;3163;51.516;4.000;2023-12-14T07:31:28;1.50;;;1.07;;
6259;SDS011;3163;51.516;4.000;2023-12-14T07:33:54;1.40;;;1.27;;
6259;SDS011;3163;51.516;4.000;2023-12-14T07:36:20;1.83;;;1.50;;
6259;SDS011;3163;51.516;4.000;2023-12-14T07:38:47;2.17;;;1.60;;
6259;SDS011;3163;51.516;4.000;2023-12-14T07:41:13;4.13;;;1.57;;
6259;SDS011;3163;51.516;4.000;2023-12-14T07:43:39;1.80;;;1.20;;
6259;SDS011;3163;51.516;4.000;2023-12-14T07:46:05;1.93;;;1.77;;
6259;SDS011;3163;51.516;4.000;2023-12-14T07:48:31;1.63;;;1.23;;
6259;SDS011;3163;51.516;4.000;2023-12-14T07:50:57;1.80;;;1.70;;
6259;SDS011;3163;51.516;4.000;2023-12-14T07:53:23;1.80;;;1.27;;
6259;SDS011;3163;51.516;4.000;2023-12-14T07:55:49;4.33;;;1.70;;
6259;SDS011;3163;51.516;4.000;2023-12-14T07:58:15;3.30;;;1.50;;
6259;SDS011;3163;51.516;4.000;2023-12-14T08:00:41;2.50;;;1.80;;
6259;SDS011;3163;51.516;4.000;2023-12-14T08:03:07;2.30;;;1.40;;
6259;SDS011;3163;51.516;4.000;2023-12-14T08:05:33;1.37;;;1.27;;
6259;SDS011;3163;51.516;4.000;2023-12-14T08:07:59;2.77;;;1.30;;
6259;SDS011;3163;51.516;4.000;2023-12-14T08:10:25;1.40;;;1.30;;
6259;SDS011;3163;51.516;4.000;2023-12-14T08:12:51;1.63;;;1.10;;
6259;SDS011;3163;51.516;4.000;2023-12-14T08:15:17;3.27;;;1.77;;
6259;SDS011;3163;51.516;4.000;2023-12-14T08:17:43;1.17;;;1.10;;
6259;SDS011;3163;51.516;4.000;2023-12-14T08:20:10;2.10;;;1.37;;
6259;SDS011;3163;51.516;4.000;2023-12-14T08:22:37;1.03;;;1.00;;
6259;SDS011;3163;51.516;4.000;2023-12-14T08:25:13;1.80;;;1.60;;
6259;SDS011;3163;51.516;4.000;2023-12-14T08:27:42;1.40;;;1.23;;
6259;SDS011;3163;51.516;4.000;2023-12-14T08:30:13;1.27;;;1.10;;
6259;SDS011;3163;51.516;4.000;2023-12-14T08:32:39;1.33;;;1.17;;
6259;SDS011;3163;51.516;4.000;2023-12-14T08:35:05;1.23;;;1.17;;
6259;SDS011;3163;51.516;4.000;2023-12-14T08:37:31;2.57;;;1.07;;
6259;SDS011;3163;51.516;4.000;2023-12-14T08:39:57;1.60;;;1.30;;
6259;SDS011;3163;51.516;4.000;2023-12-14T08:42:23;3.33;;;1.87;;
6259;SDS011;3163;51.516;4.000;2023-12-14T08:44:49;6.40;;;2.00;;
6259;SDS011;3163;51.516;4.000;2023-12-14T08:47:15;2.70;;;2.00;;
6259;SDS011;3163;51.516;4.000;2023-12-14T08:49:41;4.53;;;1.80;;
6259;SDS011;3163;51.516;4.000;2023-12-14T08:52:07;1.87;;;1.77;;
6259;SDS011;3163;51.516;4.000;2023-12-14T08:54:35;7.33;;;2.13;;
6259;SDS011;3163;51.516;4.000;2023-12-14T08:57:01;1.93;;;1.70;;
6259;SDS011;3163;51.516;4.000;2023-12-14T08:59:27;3.77;;;1.50;;
6259;SDS011;3163;51.516;4.000;2023-12-14T09:01:53;2.13;;;1.63;;
6259;SDS011;3163;51.516;4.000;2023-12-14T09:04:19;3.40;;;1.43;;
6259;SDS011;3163;51.516;4.000;2023-12-14T09:06:46;2.93;;;1.87;;
6259;SDS011;3163;51.516;4.000;2023-12-14T09:09:12;2.90;;;2.03;;
6259;SDS011;3163;51.516;4.000;2023-12-14T09:11:38;1.43;;;1.13;;
6259;SDS011;3163;51.516;4.000;2023-12-14T09:14:05;1.50;;;1.40;;
6259;SDS011;3163;51.516;4.000;2023-12-14T09:16:31;2.53;;;1.40;;
6259;SDS011;3163;51.516;4.000;2023-12-14T09:18:57;2.23;;;1.67;;
6259;SDS011;3163;51.516;4.000;2023-12-14T09:21:23;2.60;;;1.20;;
6259;SDS011;3163;51.516;4.000;2023-12-14T09:23:49;1.80;;;1.40;;
6259;SDS011;3163;51.516;4.000;2023-12-14T09:26:15;1.40;;;1.30;;
6259;SDS011;3163;51.516;4.000;2023-12-14T09:28:41;1.27;;;1.13;;
6259;SDS011;3163;51.516;4.000;2023-12-14T09:31:07;7.00;;;2.37;;
6259;SDS011;3163;51.516;4.000;2023-12-14T09:33:33;3.33;;;2.57;;
6259;SDS011;3163;51.516;4.000;2023-12-14T09:35:59;7.93;;;3.93;;
6259;SDS011;3163;51.516;4.000;2023-12-14T09:38:25;13.97;;;6.03;;
6259;SDS011;3163;51.516;4.000;2023-12-14T09:40:51;9.57;;;5.27;;
6259;SDS011;3163;51.516;4.000;2023-12-14T09:43:17;9.83;;;6.27;;
6259;SDS011;3163;51.516;4.000;2023-12-14T09:45:44;17.50;;;6.90;;
6259;SDS011;3163;51.516;4.000;2023-12-14T09:48:11;9.20;;;5.90;;
6259;SDS011;3163;51.516;4.000;2023-12-14T09:50:38;9.70;;;6.50;;
6259;SDS011;3163;51.516;4.000;2023-12-14T09:53:05;8.90;;;6.00;;
6259;SDS011;3163;51.516;4.000;2023-12-14T09:55:32;6.90;;;6.10;;
6259;SDS011;3163;51.516;4.000;2023-12-14T09:57:58;9.30;;;5.87;;
6259;SDS011;3163;51.516;4.000;2023-12-14T10:00:37;6.93;;;5.40;;
6259;SDS011;3163;51.516;4.000;2023-12-14T10:05:45;6.80;;;4.83;;
6259;SDS011;3163;51.516;4.000;2023-12-14T10:08:11;11.93;;;5.80;;
6259;SDS011;3163;51.516;4.000;2023-12-14T10:10:37;7.47;;;4.90;;
6259;SDS011;3163;51.516;4.000;2023-12-14T10:13:03;7.83;;;4.93;;
6259;SDS011;3163;51.516;4.000;2023-12-14T10:15:29;6.57;;;4.53;;
6259;SDS011;3163;51.516;4.000;2023-12-14T10:18:05;6.27;;;4.70;;
6259;SDS011;3163;51.516;4.000;2023-12-14T10:20:31;6.27;;;4.17;;
6259;SDS011;3163;51.516;4.000;2023-12-14T10:22:57;11.17;;;4.40;;
6259;SDS011;3163;51.516;4.000;2023-12-14T10:25:23;4.93;;;4.17;;
6259;SDS011;3163;51.516;4.000;2023-12-14T10:27:52;7.97;;;4.77;;
6259;SDS011;3163;51.516;4.000;2023-12-14T10:30:19;7.10;;;4.27;;
6259;SDS011;3163;51.516;4.000;2023-12-14T10:32:48;5.47;;;3.67;;
6259;SDS011;3163;51.516;4.000;2023-12-14T10:35:15;8.33;;;4.30;;
6259;SDS011;3163;51.516;4.000;2023-12-14T10:37:42;7.23;;;3.37;;
6259;SDS011;3163;51.516;4.000;2023-12-14T10:40:08;6.77;;;4.20;;
6259;SDS011;3163;51.516;4.000;2023-12-14T10:42:38;4.13;;;3.60;;
6259;SDS011;3163;51.516;4.000;2023-12-14T10:45:04;6.07;;;3.93;;
6259;SDS011;3163;51.516;4.000;2023-12-14T10:47:31;6.57;;;3.17;;
6259;SDS011;3163;51.516;4.000;2023-12-14T10:49:58;4.37;;;3.30;;
6259;SDS011;3163;51.516;4.000;2023-12-14T10:52:28;6.60;;;3.87;;
6259;SDS011;3163;51.516;4.000;2023-12-14T10:54:59;6.40;;;2.97;;
6259;SDS011;3163;51.516;4.000;2023-12-14T10:57:26;4.80;;;3.73;;
6259;SDS011;3163;51.516;4.000;2023-12-14T10:59:57;6.37;;;3.53;;
6259;SDS011;3163;51.516;4.000;2023-12-14T11:02:24;4.23;;;3.27;;
6259;SDS011;3163;51.516;4.000;2023-12-14T11:04:57;4.03;;;3.37;;
6259;SDS011;3163;51.516;4.000;2023-12-14T11:07:43;5.33;;;3.27;;
6259;SDS011;3163;51.516;4.000;2023-12-14T11:10:12;3.83;;;3.00;;
6259;SDS011;3163;51.516;4.000;2023-12-14T11:15:45;4.47;;;3.13;;
6259;SDS011;3163;51.516;4.000;2023-12-14T11:25:54;3.90;;;2.60;;
6259;SDS011;3163;51.516;4.000;2023-12-14T11:28:20;4.33;;;2.67;;
6259;SDS011;3163;51.516;4.000;2023-12-14T11:30:46;4.37;;;2.80;;
6259;SDS011;3163;51.516;4.000;2023-12-14T11:33:13;3.73;;;2.80;;
6259;SDS011;3163;51.516;4.000;2023-12-14T11:35:39;3.30;;;2.70;;
6259;SDS011;3163;51.516;4.000;2023-12-14T11:38:05;2.40;;;2.03;;
6259;SDS011;3163;51.516;4.000;2023-12-14T11:40:38;2.93;;;2.63;;
6259;SDS011;3163;51.516;4.000;2023-12-14T11:43:04;2.63;;;2.43;;
6259;SDS011;3163;51.516;4.000;2023-12-14T11:45:38;2.40;;;2.20;;
6259;SDS011;3163;51.516;4.000;2023-12-14T11:48:04;3.07;;;2.77;;
6259;SDS011;3163;51.516;4.000;2023-12-14T11:50:33;2.83;;;2.47;;
6259;SDS011;3163;51.516;4.000;2023-12-14T11:53:00;2.43;;;2.23;;
6259;SDS011;3163;51.516;4.000;2023-12-14T11:55:28;3.03;;;2.20;;
6259;SDS011;3163;51.516;4.000;2023-12-14T11:57:55;3.60;;;2.07;;
6259;SDS011;3163;51.516;4.000;2023-12-14T12:00:28;3.77;;;1.90;;
6259;SDS011;3163;51.516;4.000;2023-12-14T12:05:49;3.47;;;1.93;;
6259;SDS011;3163;51.516;4.000;2023-12-14T12:08:16;2.43;;;2.00;;
6259;SDS011;3163;51.516;4.000;2023-12-14T12:10:43;1.83;;;1.73;;
6259;SDS011;3163;51.516;4.000;2023-12-14T12:13:13;2.83;;;1.90;;
6259;SDS011;3163;51.516;4.000;2023-12-14T12:15:40;2.00;;;1.90;;
6259;SDS011;3163;51.516;4.000;2023-12-14T12:18:07;2.40;;;2.07;;
6259;SDS011;3163;51.516;4.000;2023-12-14T12:20:33;2.07;;;1.87;;
6259;SDS011;3163;51.516;4.000;2023-12-14T12:22:59;4.20;;;1.83;;
6259;SDS011;3163;51.516;4.000;2023-12-14T12:25:25;1.70;;;1.60;;
6259;SDS011;3163;51.516;4.000;2023-12-14T12:27:53;3.57;;;1.57;;
6259;SDS011;3163;51.516;4.000;2023-12-14T12:30:19;3.23;;;1.43;;
6259;SDS011;3163;51.516;4.000;2023-12-14T12:32:45;2.03;;;1.90;;
6259;SDS011;3163;51.516;4.000;2023-12-14T12:35:11;2.27;;;1.77;;
6259;SDS011;3163;51.516;4.000;2023-12-14T12:37:37;2.73;;;1.70;;
6259;SDS011;3163;51.516;4.000;2023-12-14T12:40:03;2.90;;;1.73;;
6259;SDS011;3163;51.516;4.000;2023-12-14T12:42:29;1.90;;;1.80;;
6259;SDS011;3163;51.516;4.000;2023-12-14T12:44:55;3.23;;;1.80;;
6259;SDS011;3163;51.516;4.000;2023-12-14T12:47:21;1.70;;;1.20;;
6259;SDS011;3163;51.516;4.000;2023-12-14T12:49:47;0.70;;;0.70;;
6259;SDS011;3163;51.516;4.000;2023-12-14T12:52:13;2.60;;;2.43;;
6259;SDS011;3163;51.516;4.000;2023-12-14T12:54:39;2.10;;;1.90;;
6259;SDS011;3163;51.516;4.000;2023-12-14T12:57:05;2.73;;;2.10;;
6259;SDS011;3163;51.516;4.000;2023-12-14T12:59:31;2.10;;;2.00;;
6259;SDS011;3163;51.516;4.000;2023-12-14T13:01:58;2.10;;;1.90;;
6259;SDS011;3163;51.516;4.000;2023-12-14T13:04:24;5.20;;;2.20;;
6259;SDS011;3163;51.516;4.000;2023-12-14T13:06:51;2.00;;;1.90;;
6259;SDS011;3163;51.516;4.000;2023-12-14T13:09:17;2.65;;;2.30;;
6259;SDS011;3163;51.516;4.000;2023-12-14T13:11:47;1.30;;;1.20;;
6259;SDS011;3163;51.516;4.000;2023-12-14T13:14:15;2.57;;;1.50;;
6259;SDS011;3163;51.516;4.000;2023-12-14T13:16:41;2.30;;;1.50;;
6259;SDS011;3163;51.516;4.000;2023-12-14T13:19:08;0.97;;;0.90;;
6259;SDS011;3163;51.516;4.000;2023-12-14T13:21:34;1.60;;;1.50;;
6259;SDS011;3163;51.516;4.000;2023-12-14T13:24:00;3.50;;;1.40;;
6259;SDS011;3163;51.516;4.000;2023-12-14T13:26:26;1.80;;;1.07;;
6259;SDS011;3163;51.516;4.000;2023-12-14T13:28:52;1.70;;;1.20;;
6259;SDS011;3163;51.516;4.000;2023-12-14T13:31:18;1.10;;;1.07;;
6259;SDS011;3163;51.516;4.000;2023-12-14T13:33:48;2.07;;;1.20;;
6259;SDS011;3163;51.516;4.000;2023-12-14T13:36:15;1.03;;;1.03;;
6259;SDS011;3163;51.516;4.000;2023-12-14T13:38:41;1.93;;;1.07;;
6259;SDS011;3163;51.516;4.000;2023-12-14T13:41:07;1.00;;;0.90;;
6259;SDS011;3163;51.516;4.000;2023-12-14T13:43:34;1.53;;;1.00;;
6259;SDS011;3163;51.516;4.000;2023-12-14T13:46:00;1.33;;;1.00;;
6259;SDS011;3163;51.516;4.000;2023-12-14T13:48:26;0.93;;;0.93;;
6259;SDS011;3163;51.516;4.000;2023-12-14T13:50:53;0.97;;;0.97;;
6259;SDS011;3163;51.516;4.000;2023-12-14T13:53:20;1.13;;;1.07;;
6259;SDS011;3163;51.516;4.000;2023-12-14T13:55:46;1.30;;;1.20;;
6259;SDS011;3163;51.516;4.000;2023-12-14T13:58:14;1.13;;;1.10;;
6259;SDS011;3163;51.516;4.000;2023-12-14T14:00:40;0.87;;;0.87;;
6259;SDS011;3163;51.516;4.000;2023-12-14T14:03:06;0.90;;;0.90;;
6259;SDS011;3163;51.516;4.000;2023-12-14T14:05:33;1.50;;;0.97;;
6259;SDS011;3163;51.516;4.000;2023-12-14T14:07:59;1.00;;;1.00;;
6259;SDS011;3163;51.516;4.000;2023-12-14T14:10:25;1.17;;;1.10;;
6259;SDS011;3163;51.516;4.000;2023-12-14T14:12:51;1.23;;;0.90;;
6259;SDS011;3163;51.516;4.000;2023-12-14T14:15:18;0.87;;;0.87;;
6259;SDS011;3163;51.516;4.000;2023-12-14T14:17:45;2.83;;;1.00;;
6259;SDS011;3163;51.516;4.000;2023-12-14T14:20:16;2.87;;;0.93;;
6259;SDS011;3163;51.516;4.000;2023-12-14T14:22:42;1.00;;;0.87;;
6259;SDS011;3163;51.516;4.000;2023-12-14T14:25:09;1.20;;;0.90;;
6259;SDS011;3163;51.516;4.000;2023-12-14T14:27:35;1.20;;;1.13;;
6259;SDS011;3163;51.516;4.000;2023-12-14T14:30:02;1.07;;;0.83;;
6259;SDS011;3163;51.516;4.000;2023-12-14T14:32:28;1.07;;;1.00;;
6259;SDS011;3163;51.516;4.000;2023-12-14T14:34:56;0.97;;;0.80;;
6259;SDS011;3163;51.516;4.000;2023-12-14T14:37:23;0.80;;;0.80;;
6259;SDS011;3163;51.516;4.000;2023-12-14T14:39:50;0.90;;;0.90;;
6259;SDS011;3163;51.516;4.000;2023-12-14T14:42:16;1.70;;;0.83;;
6259;SDS011;3163;51.516;4.000;2023-12-14T14:44:42;1.10;;;0.70;;
6259;SDS011;3163;51.516;4.000;2023-12-14T14:47:08;1.37;;;1.27;;
6259;SDS011;3163;51.516;4.000;2023-12-14T14:49:34;1.00;;;1.00;;
6259;SDS011;3163;51.516;4.000;2023-12-14T14:52:00;0.50;;;0.50;;
6259;SDS011;3163;51.516;4.000;2023-12-14T14:54:26;1.07;;;0.80;;
6259;SDS011;3163;51.516;4.000;2023-12-14T14:56:52;0.57;;;0.57;;
6259;SDS011;3163;51.516;4.000;2023-12-14T14:59:18;1.47;;;0.70;;
6259;SDS011;3163;51.516;4.000;2023-12-14T15:01:44;0.70;;;0.70;;
6259;SDS011;3163;51.516;4.000;2023-12-14T15:04:11;1.33;;;0.77;;
6259;SDS011;3163;51.516;4.000;2023-12-14T15:06:37;1.13;;;0.97;;
6259;SDS011;3163;51.516;4.000;2023-12-14T15:09:04;0.77;;;0.77;;
6259;SDS011;3163;51.516;4.000;2023-12-14T15:11:32;0.73;;;0.73;;
6259;SDS011;3163;51.516;4.000;2023-12-14T15:13:58;1.13;;;0.87;;
6259;SDS011;3163;51.516;4.000;2023-12-14T15:16:25;0.90;;;0.90;;
6259;SDS011;3163;51.516;4.000;2023-12-14T15:18:51;2.83;;;1.00;;
6259;SDS011;3163;51.516;4.000;2023-12-14T15:21:17;0.70;;;0.70;;
6259;SDS011;3163;51.516;4.000;2023-12-14T15:23:44;0.60;;;0.60;;
6259;SDS011;3163;51.516;4.000;2023-12-14T15:26:12;1.37;;;0.77;;